Time;durP1;ratioP1;P1;durP2;ratioP2;P2;SDS_P1;SDS_P2;PMS_P1;PMS_P2;Temp;Humidity;BMP_temperature;BMP_pressure;BME280_temperature;BME280_humidity;BME280_pressure;Samples;Min_cycle;Max_cycle;Signal;HPM_P1;HPM_P2
2023/08/31 00:00:56;;;;;;;8.13;2.83;;;;;;;;;;5108972;28;20040;-77
2023/08/31 00:03:22;;;;;;;6.43;2.50;;;;;;;;;;5114545;28;20508;-77
2023/08/31 00:05:51;;;;;;;9.27;2.70;;;;;;;;;;5113283;28;20039;-78
2023/08/31 00:08:17;;;;;;;11.65;2.85;;;;;;;;;;5086872;28;20066;-77
2023/08/31 00:10:43;;;;;;;7.57;2.55;;;;;;;;;;5090721;28;20043;-77
2023/08/31 00:13:09;;;;;;;6.07;2.63;;;;;;;;;;5110684;27;20051;-77
2023/08/31 00:15:36;;;;;;;8.13;2.33;;;;;;;;;;5101049;28;20055;-77
2023/08/31 00:18:06;;;;;;;7.60;2.83;;;;;;;;;;5093914;28;20513;-77
2023/08/31 00:20:33;;;;;;;6.22;2.30;;;;;;;;;;5094373;28;20044;-77
2023/08/31 00:22:59;;;;;;;7.53;2.70;;;;;;;;;;5106439;28;20124;-77
2023/08/31 00:25:25;;;;;;;6.97;2.50;;;;;;;;;;5111140;28;20051;-77
2023/08/31 00:27:53;;;;;;;5.82;2.33;;;;;;;;;;5113238;28;20043;-77
2023/08/31 00:30:20;;;;;;;7.68;2.88;;;;;;;;;;5099961;28;20122;-77
2023/08/31 00:32:50;;;;;;;6.47;2.60;;;;;;;;;;5109344;28;20374;-77
2023/08/31 00:35:17;;;;;;;6.80;2.65;;;;;;;;;;5100000;28;20087;-77
2023/08/31 00:37:43;;;;;;;6.75;2.65;;;;;;;;;;5102906;27;20054;-78
2023/08/31 00:40:11;;;;;;;9.90;2.95;;;;;;;;;;5095850;28;20050;-77
2023/08/31 00:42:37;;;;;;;12.13;3.00;;;;;;;;;;5103757;28;20050;-77
2023/08/31 00:45:03;;;;;;;7.57;2.67;;;;;;;;;;5105423;28;20047;-77
2023/08/31 00:47:30;;;;;;;7.13;2.75;;;;;;;;;;5101947;28;20048;-77
2023/08/31 00:49:56;;;;;;;8.52;3.30;;;;;;;;;;5092793;28;20036;-77
2023/08/31 00:52:22;;;;;;;9.30;3.10;;;;;;;;;;5091805;28;20040;-77
2023/08/31 00:54:49;;;;;;;9.82;3.40;;;;;;;;;;5093210;28;20401;-77
2023/08/31 00:57:15;;;;;;;10.65;3.13;;;;;;;;;;5106008;28;20428;-78
2023/08/31 00:59:41;;;;;;;12.05;3.30;;;;;;;;;;5103996;28;20044;-78
2023/08/31 01:02:15;;;;;;;10.15;3.30;;;;;;;;;;5095931;28;20052;-77
2023/08/31 01:04:52;;;;;;;8.90;3.40;;;;;;;;;;5084404;28;20080;-77
2023/08/31 01:07:37;;;;;;;9.65;3.30;;;;;;;;;;5092779;28;20048;-77
2023/08/31 01:10:09;;;;;;;8.27;3.70;;;;;;;;;;5099922;28;20047;-77
2023/08/31 01:12:55;;;;;;;13.15;3.42;;;;;;;;;;5109112;28;20112;-77
2023/08/31 01:15:21;;;;;;;15.57;3.85;;;;;;;;;;5110138;28;20053;-77
2023/08/31 01:17:53;;;;;;;9.70;3.67;;;;;;;;;;5092028;28;20143;-77
2023/08/31 01:20:48;;;;;;;7.72;3.22;;;;;;;;;;5110240;28;20481;-77
2023/08/31 01:23:17;;;;;;;7.65;2.92;;;;;;;;;;4998399;28;20116;-78
2023/08/31 01:25:43;;;;;;;9.77;4.05;;;;;;;;;;5007683;28;20164;-77
2023/08/31 01:28:11;;;;;;;8.43;3.17;;;;;;;;;;5008647;28;20124;-76
2023/08/31 01:30:37;;;;;;;9.02;3.28;;;;;;;;;;5010572;28;20624;-77
2023/08/31 01:33:03;;;;;;;9.40;3.30;;;;;;;;;;4992991;28;20085;-76
2023/08/31 01:35:33;;;;;;;9.55;3.42;;;;;;;;;;5008362;28;20065;-77
2023/08/31 01:38:00;;;;;;;8.63;3.38;;;;;;;;;;5007376;28;20408;-77
2023/08/31 01:40:32;;;;;;;7.65;3.40;;;;;;;;;;5012751;28;20490;-77
2023/08/31 01:42:59;;;;;;;10.50;3.20;;;;;;;;;;5010889;28;20551;-76
2023/08/31 01:45:26;;;;;;;11.07;3.63;;;;;;;;;;5010721;28;20046;-76
2023/08/31 01:47:52;;;;;;;10.23;3.53;;;;;;;;;;5010629;28;20057;-76
2023/08/31 01:50:18;;;;;;;9.40;3.25;;;;;;;;;;5009234;28;20497;-76
2023/08/31 01:52:44;;;;;;;7.95;3.25;;;;;;;;;;5009712;28;20042;-77
2023/08/31 01:55:13;;;;;;;8.55;3.10;;;;;;;;;;5011088;28;20515;-77
2023/08/31 01:57:39;;;;;;;9.13;2.97;;;;;;;;;;5009335;28;20530;-76
2023/08/31 02:00:05;;;;;;;8.18;3.45;;;;;;;;;;5080607;28;20136;-76
2023/08/31 02:02:32;;;;;;;8.60;3.40;;;;;;;;;;5114137;28;20462;-77
2023/08/31 02:05:01;;;;;;;7.72;3.17;;;;;;;;;;5117721;28;20050;-77
2023/08/31 02:07:27;;;;;;;8.75;3.10;;;;;;;;;;5115733;28;20048;-77
2023/08/31 02:09:53;;;;;;;9.10;3.13;;;;;;;;;;5115142;28;20096;-77
2023/08/31 02:12:19;;;;;;;9.95;3.53;;;;;;;;;;5116934;28;20476;-77
2023/08/31 02:14:45;;;;;;;7.68;3.35;;;;;;;;;;5116537;28;20043;-77
2023/08/31 02:17:11;;;;;;;10.35;3.70;;;;;;;;;;5115950;28;20043;-77
2023/08/31 02:19:37;;;;;;;9.75;3.53;;;;;;;;;;5111226;28;20085;-77
2023/08/31 02:22:04;;;;;;;8.90;3.45;;;;;;;;;;5111864;28;20040;-77
2023/08/31 02:24:30;;;;;;;7.68;3.55;;;;;;;;;;5114301;28;20031;-77
2023/08/31 02:26:56;;;;;;;8.38;3.50;;;;;;;;;;5104267;28;20508;-77
2023/08/31 02:29:23;;;;;;;9.75;3.60;;;;;;;;;;5115593;28;20476;-77
2023/08/31 02:31:49;;;;;;;9.05;3.58;;;;;;;;;;5113397;28;20050;-77
2023/08/31 02:34:15;;;;;;;8.60;3.53;;;;;;;;;;5097502;28;20113;-76
2023/08/31 02:36:41;;;;;;;8.57;3.90;;;;;;;;;;5105339;28;20050;-77
2023/08/31 02:39:07;;;;;;;8.48;3.65;;;;;;;;;;5079875;28;20240;-77
2023/08/31 02:41:33;;;;;;;11.80;4.00;;;;;;;;;;5112994;27;20061;-77
2023/08/31 02:43:59;;;;;;;15.00;4.28;;;;;;;;;;5115987;28;20464;-77
2023/08/31 02:46:25;;;;;;;10.68;4.25;;;;;;;;;;5116378;28;20035;-77
2023/08/31 02:48:51;;;;;;;15.68;4.70;;;;;;;;;;5105650;28;20092;-77
2023/08/31 02:51:17;;;;;;;9.32;4.20;;;;;;;;;;5111387;28;20044;-77
2023/08/31 02:53:43;;;;;;;9.65;4.50;;;;;;;;;;5100790;28;20510;-76
2023/08/31 02:56:09;;;;;;;10.57;4.85;;;;;;;;;;5113678;28;20074;-78
2023/08/31 02:58:36;;;;;;;10.77;4.80;;;;;;;;;;5102998;28;20044;-78
2023/08/31 03:01:10;;;;;;;11.45;5.35;;;;;;;;;;5109936;28;20052;-77
2023/08/31 03:03:37;;;;;;;9.52;4.65;;;;;;;;;;5108830;28;20052;-78
2023/08/31 03:06:03;;;;;;;10.98;5.95;;;;;;;;;;5113944;28;20482;-78
2023/08/31 03:08:29;;;;;;;11.35;5.30;;;;;;;;;;5085839;28;20101;-78
2023/08/31 03:10:56;;;;;;;12.18;5.18;;;;;;;;;;5086327;28;20055;-77
2023/08/31 03:13:22;;;;;;;12.93;5.88;;;;;;;;;;5090641;28;20036;-78
2023/08/31 03:15:48;;;;;;;9.50;5.78;;;;;;;;;;5085119;28;20045;-78
2023/08/31 03:18:14;;;;;;;10.50;5.07;;;;;;;;;;5093850;28;20044;-78
2023/08/31 03:20:40;;;;;;;9.55;5.60;;;;;;;;;;5093582;28;20046;-78
2023/08/31 03:23:06;;;;;;;12.13;6.03;;;;;;;;;;5080320;28;20044;-78
2023/08/31 03:25:32;;;;;;;9.38;5.13;;;;;;;;;;5092097;28;21500;-78
2023/08/31 03:27:58;;;;;;;12.18;5.65;;;;;;;;;;5093015;28;20070;-78
2023/08/31 03:30:24;;;;;;;12.73;5.97;;;;;;;;;;5086569;28;20486;-78
2023/08/31 03:32:51;;;;;;;10.13;6.28;;;;;;;;;;5092701;28;20043;-78
2023/08/31 03:35:17;;;;;;;11.50;6.50;;;;;;;;;;5087604;28;20044;-78
2023/08/31 03:37:43;;;;;;;12.02;6.85;;;;;;;;;;5082967;28;20044;-78
2023/08/31 03:40:09;;;;;;;12.38;6.43;;;;;;;;;;5089032;28;20468;-78
2023/08/31 03:42:35;;;;;;;10.75;6.25;;;;;;;;;;5085266;28;20434;-78
2023/08/31 03:45:03;;;;;;;10.18;6.07;;;;;;;;;;5089859;28;20047;-78
2023/08/31 03:47:30;;;;;;;7.90;6.28;;;;;;;;;;5093509;28;20044;-78
2023/08/31 03:49:56;;;;;;;9.15;5.78;;;;;;;;;;5094265;28;20036;-79
2023/08/31 03:52:23;;;;;;;11.23;6.53;;;;;;;;;;5085696;28;20054;-78
2023/08/31 03:54:49;;;;;;;9.82;6.40;;;;;;;;;;5092278;28;20044;-78
2023/08/31 03:57:15;;;;;;;9.60;6.90;;;;;;;;;;5093304;28;20052;-78
2023/08/31 03:59:41;;;;;;;10.30;6.82;;;;;;;;;;5094192;28;20093;-78
2023/08/31 04:02:07;;;;;;;11.35;6.65;;;;;;;;;;5094395;28;20040;-77
2023/08/31 04:04:33;;;;;;;9.93;6.65;;;;;;;;;;5093539;28;20127;-78
2023/08/31 04:07:00;;;;;;;10.02;6.55;;;;;;;;;;5099175;28;20097;-78
2023/08/31 04:09:26;;;;;;;8.88;6.55;;;;;;;;;;5113584;28;20043;-78
2023/08/31 04:11:52;;;;;;;9.80;6.97;;;;;;;;;;5114717;28;20543;-77
2023/08/31 04:14:18;;;;;;;9.23;6.70;;;;;;;;;;5115094;28;20047;-78
2023/08/31 04:16:45;;;;;;;8.65;6.40;;;;;;;;;;5110005;28;20493;-77
2023/08/31 04:19:11;;;;;;;9.60;7.20;;;;;;;;;;5111207;28;20050;-78
2023/08/31 04:21:38;;;;;;;9.45;6.50;;;;;;;;;;5088762;28;20048;-77
2023/08/31 04:24:05;;;;;;;8.73;6.43;;;;;;;;;;5106179;28;20048;-77
2023/08/31 04:26:31;;;;;;;9.15;6.90;;;;;;;;;;5100902;28;20048;-77
2023/08/31 04:28:57;;;;;;;9.57;6.93;;;;;;;;;;5113388;28;20123;-78
2023/08/31 04:31:23;;;;;;;8.65;6.30;;;;;;;;;;5106362;28;20493;-77
2023/08/31 04:33:53;;;;;;;8.77;6.45;;;;;;;;;;5107337;28;20043;-77
2023/08/31 04:36:19;;;;;;;10.77;6.60;;;;;;;;;;5097598;28;20054;-78
2023/08/31 04:38:45;;;;;;;10.80;6.75;;;;;;;;;;5109074;28;20058;-78
2023/08/31 04:41:12;;;;;;;9.80;6.35;;;;;;;;;;5101401;28;20417;-78
2023/08/31 04:43:38;;;;;;;9.15;6.03;;;;;;;;;;5111962;28;20050;-78
2023/08/31 04:46:04;;;;;;;8.50;5.70;;;;;;;;;;5084219;28;20056;-78
2023/08/31 04:48:30;;;;;;;8.10;5.95;;;;;;;;;;5110620;28;20122;-78
2023/08/31 04:50:57;;;;;;;9.35;5.90;;;;;;;;;;5105167;28;20258;-78
2023/08/31 04:53:23;;;;;;;8.20;5.93;;;;;;;;;;5111702;28;20035;-78
2023/08/31 04:55:49;;;;;;;8.85;5.70;;;;;;;;;;5109564;28;20507;-78
2023/08/31 04:58:15;;;;;;;8.50;5.90;;;;;;;;;;5110220;28;20063;-78
2023/08/31 05:00:41;;;;;;;8.77;5.03;;;;;;;;;;5105144;28;20101;-78
2023/08/31 05:03:07;;;;;;;8.15;5.97;;;;;;;;;;5093733;28;20122;-77
2023/08/31 05:05:34;;;;;;;9.82;6.65;;;;;;;;;;5097304;28;20509;-77
2023/08/31 05:08:00;;;;;;;9.70;5.55;;;;;;;;;;5108265;28;20065;-78
2023/08/31 05:10:26;;;;;;;8.77;5.68;;;;;;;;;;5108362;28;20113;-78
2023/08/31 05:12:52;;;;;;;8.35;5.75;;;;;;;;;;5101316;28;20505;-77
2023/08/31 05:15:18;;;;;;;9.10;5.90;;;;;;;;;;5106777;28;20049;-78
2023/08/31 05:17:44;;;;;;;9.10;5.18;;;;;;;;;;5097156;28;20036;-78
2023/08/31 05:20:11;;;;;;;8.25;4.70;;;;;;;;;;5092330;28;20421;-77
2023/08/31 05:22:37;;;;;;;11.13;5.80;;;;;;;;;;5097514;28;20118;-78
2023/08/31 05:25:04;;;;;;;9.68;4.90;;;;;;;;;;5074787;28;20060;-78
2023/08/31 05:27:30;;;;;;;8.75;4.80;;;;;;;;;;5104172;28;20051;-77
2023/08/31 05:29:56;;;;;;;8.80;5.18;;;;;;;;;;5106547;28;20061;-78
2023/08/31 05:32:22;;;;;;;10.38;4.47;;;;;;;;;;5108023;28;20032;-78
2023/08/31 05:34:48;;;;;;;7.65;4.57;;;;;;;;;;5106416;28;20036;-78
2023/08/31 05:37:14;;;;;;;9.07;5.20;;;;;;;;;;5109868;28;20065;-77
2023/08/31 05:39:40;;;;;;;8.43;4.40;;;;;;;;;;5111373;28;20037;-77
2023/08/31 05:42:06;;;;;;;9.07;4.93;;;;;;;;;;5111439;28;20036;-78
2023/08/31 05:44:32;;;;;;;8.40;4.70;;;;;;;;;;5116308;28;20417;-78
2023/08/31 05:46:58;;;;;;;7.50;4.07;;;;;;;;;;5113922;28;20043;-78
2023/08/31 05:49:24;;;;;;;6.75;3.38;;;;;;;;;;5113193;28;20031;-78
2023/08/31 05:51:51;;;;;;;6.82;3.00;;;;;;;;;;5115242;28;20067;-78
2023/08/31 05:54:17;;;;;;;7.60;3.20;;;;;;;;;;5113540;28;20036;-78
2023/08/31 05:56:43;;;;;;;7.45;2.80;;;;;;;;;;5110185;28;20044;-78
2023/08/31 05:59:09;;;;;;;7.05;2.80;;;;;;;;;;5115620;28;20055;-76
2023/08/31 06:01:38;;;;;;;5.72;2.50;;;;;;;;;;5114425;28;20039;-76
2023/08/31 06:04:05;;;;;;;5.63;2.33;;;;;;;;;;5105753;28;20044;-76
2023/08/31 06:06:33;;;;;;;5.60;2.13;;;;;;;;;;5106568;28;20077;-77
2023/08/31 06:08:59;;;;;;;7.38;2.17;;;;;;;;;;5111306;28;20130;-77
2023/08/31 06:11:25;;;;;;;5.38;2.33;;;;;;;;;;5115283;28;20377;-77
2023/08/31 06:13:51;;;;;;;5.97;2.05;;;;;;;;;;5112339;27;20069;-77
2023/08/31 06:16:17;;;;;;;5.97;1.90;;;;;;;;;;5100118;28;20059;-77
2023/08/31 06:18:43;;;;;;;5.65;2.10;;;;;;;;;;5098357;27;20040;-77
2023/08/31 06:21:09;;;;;;;6.50;2.13;;;;;;;;;;5113570;28;20100;-76
2023/08/31 06:23:35;;;;;;;6.10;2.30;;;;;;;;;;5109319;27;20404;-77
2023/08/31 06:26:01;;;;;;;5.97;1.83;;;;;;;;;;5114291;28;20035;-76
2023/08/31 06:28:27;;;;;;;7.05;2.00;;;;;;;;;;5111038;27;20108;-77
2023/08/31 06:30:53;;;;;;;5.18;1.80;;;;;;;;;;5113197;27;20043;-77
2023/08/31 06:33:20;;;;;;;5.72;1.63;;;;;;;;;;5114000;28;20113;-77
2023/08/31 06:35:48;;;;;;;5.25;1.60;;;;;;;;;;5109284;28;20138;-77
2023/08/31 06:38:14;;;;;;;6.40;1.80;;;;;;;;;;5110779;28;20048;-77
2023/08/31 06:40:43;;;;;;;6.78;1.95;;;;;;;;;;5113345;28;20047;-77
2023/08/31 06:43:09;;;;;;;6.78;1.80;;;;;;;;;;5111938;28;20043;-76
2023/08/31 06:45:35;;;;;;;5.75;1.60;;;;;;;;;;5114744;28;20071;-77
2023/08/31 06:48:02;;;;;;;5.63;1.40;;;;;;;;;;5113746;28;20047;-77
2023/08/31 06:50:28;;;;;;;5.43;1.58;;;;;;;;;;5115960;28;20048;-77
2023/08/31 06:52:54;;;;;;;5.95;1.50;;;;;;;;;;5115548;28;20131;-76
2023/08/31 06:55:20;;;;;;;5.82;1.70;;;;;;;;;;5115991;28;20075;-76
2023/08/31 06:57:46;;;;;;;7.72;1.80;;;;;;;;;;5112297;28;20122;-77
2023/08/31 07:00:12;;;;;;;6.72;1.50;;;;;;;;;;5107341;28;20189;-77
2023/08/31 07:02:42;;;;;;;6.13;1.63;;;;;;;;;;5100341;28;20109;-78
2023/08/31 07:05:08;;;;;;;5.72;1.77;;;;;;;;;;5076975;28;20043;-77
2023/08/31 07:07:34;;;;;;;6.68;1.70;;;;;;;;;;5109624;27;20051;-77
2023/08/31 07:10:01;;;;;;;6.72;1.48;;;;;;;;;;5103889;27;20058;-78
2023/08/31 07:12:27;;;;;;;5.32;1.50;;;;;;;;;;5102965;28;20048;-77
2023/08/31 07:14:53;;;;;;;4.53;1.40;;;;;;;;;;5105483;28;20120;-77
2023/08/31 07:17:19;;;;;;;5.70;1.60;;;;;;;;;;5100954;27;20042;-78
2023/08/31 07:19:45;;;;;;;5.25;1.65;;;;;;;;;;5113837;28;20051;-77
2023/08/31 07:22:12;;;;;;;7.90;1.67;;;;;;;;;;5112989;28;20046;-77
2023/08/31 07:24:38;;;;;;;6.22;1.80;;;;;;;;;;5105140;27;20048;-78
2023/08/31 07:27:04;;;;;;;7.97;1.75;;;;;;;;;;5111751;28;20071;-77
2023/08/31 07:29:30;;;;;;;5.53;1.75;;;;;;;;;;5097569;28;20097;-78
2023/08/31 07:31:57;;;;;;;6.25;1.85;;;;;;;;;;5094237;28;20056;-77
2023/08/31 07:34:23;;;;;;;5.88;1.70;;;;;;;;;;5100009;27;20047;-77
2023/08/31 07:36:49;;;;;;;7.28;1.65;;;;;;;;;;5105154;28;20059;-77
2023/08/31 07:39:17;;;;;;;4.43;1.50;;;;;;;;;;5094287;28;20052;-77
2023/08/31 07:41:43;;;;;;;6.78;1.60;;;;;;;;;;5095889;27;20048;-77
2023/08/31 07:44:09;;;;;;;6.43;1.63;;;;;;;;;;5112783;28;20122;-77
2023/08/31 07:46:35;;;;;;;5.93;1.40;;;;;;;;;;5087720;28;20113;-78
2023/08/31 07:49:02;;;;;;;7.93;1.90;;;;;;;;;;5086092;28;20040;-78
2023/08/31 07:51:29;;;;;;;6.40;1.42;;;;;;;;;;5095175;28;20048;-77
2023/08/31 07:53:55;;;;;;;5.50;1.50;;;;;;;;;;5098375;28;20173;-77
2023/08/31 07:56:22;;;;;;;6.40;1.38;;;;;;;;;;5093789;28;20058;-77
2023/08/31 07:58:48;;;;;;;6.95;1.50;;;;;;;;;;5101222;28;20071;-77
2023/08/31 08:01:14;;;;;;;5.05;1.40;;;;;;;;;;5094298;28;20048;-77
2023/08/31 08:03:40;;;;;;;5.85;1.20;;;;;;;;;;5097602;28;20112;-77
2023/08/31 08:06:06;;;;;;;5.35;1.60;;;;;;;;;;5093843;28;20044;-77
2023/08/31 08:08:32;;;;;;;5.93;1.23;;;;;;;;;;5108366;28;20089;-77
2023/08/31 08:10:59;;;;;;;10.48;1.60;;;;;;;;;;5112428;28;20080;-77
2023/08/31 08:13:25;;;;;;;6.10;1.38;;;;;;;;;;5096233;28;20048;-76
2023/08/31 08:15:51;;;;;;;5.60;1.20;;;;;;;;;;5098980;28;20051;-76
2023/08/31 08:18:17;;;;;;;4.38;1.00;;;;;;;;;;5113792;28;20043;-74
2023/08/31 08:20:43;;;;;;;6.47;1.42;;;;;;;;;;5113822;28;20032;-76
2023/08/31 08:23:09;;;;;;;6.63;1.25;;;;;;;;;;5118402;27;20051;-77
2023/08/31 08:25:35;;;;;;;4.85;0.95;;;;;;;;;;5110722;28;20093;-75
2023/08/31 08:28:03;;;;;;;6.10;1.20;;;;;;;;;;5093612;28;20036;-76
2023/08/31 08:30:29;;;;;;;7.50;1.33;;;;;;;;;;5093265;28;20448;-76
2023/08/31 08:32:55;;;;;;;7.68;1.40;;;;;;;;;;5094138;28;20486;-76
2023/08/31 08:35:21;;;;;;;8.00;1.50;;;;;;;;;;5112042;28;20050;-76
2023/08/31 08:37:47;;;;;;;7.22;1.48;;;;;;;;;;5101005;28;20040;-77
2023/08/31 08:40:14;;;;;;;5.93;1.48;;;;;;;;;;5095890;28;20032;-76
2023/08/31 08:42:41;;;;;;;5.57;1.40;;;;;;;;;;5110878;28;20050;-75
2023/08/31 08:45:17;;;;;;;7.38;1.40;;;;;;;;;;5104296;28;20047;-76
2023/08/31 08:47:44;;;;;;;6.70;1.40;;;;;;;;;;5097031;28;20043;-75
2023/08/31 08:50:14;;;;;;;6.65;1.13;;;;;;;;;;5077676;28;20048;-76
2023/08/31 08:52:41;;;;;;;6.45;1.20;;;;;;;;;;5097981;28;20055;-76
2023/08/31 08:55:07;;;;;;;4.30;1.10;;;;;;;;;;5095486;28;20040;-76
2023/08/31 08:57:34;;;;;;;5.47;1.20;;;;;;;;;;5093093;28;20120;-76
2023/08/31 09:00:00;;;;;;;7.10;1.65;;;;;;;;;;5104159;28;20044;-77
2023/08/31 09:02:26;;;;;;;8.88;1.60;;;;;;;;;;5094165;28;20308;-76
2023/08/31 09:04:54;;;;;;;9.45;1.20;;;;;;;;;;5094427;28;20482;-76
2023/08/31 09:07:24;;;;;;;5.45;1.02;;;;;;;;;;5111023;28;20052;-77
2023/08/31 09:09:50;;;;;;;5.28;1.00;;;;;;;;;;5074944;28;20185;-76
2023/08/31 09:12:17;;;;;;;4.00;0.82;;;;;;;;;;5097687;28;20043;-75
2023/08/31 09:14:43;;;;;;;5.63;1.13;;;;;;;;;;5095213;28;20453;-76
2023/08/31 09:17:09;;;;;;;5.15;0.93;;;;;;;;;;5108547;28;20047;-77
2023/08/31 09:19:35;;;;;;;4.68;0.93;;;;;;;;;;5100157;28;20393;-77
2023/08/31 09:22:02;;;;;;;6.18;0.80;;;;;;;;;;5101800;28;20943;-77
2023/08/31 09:24:29;;;;;;;5.75;0.93;;;;;;;;;;5104127;28;20048;-77
2023/08/31 09:26:57;;;;;;;6.13;0.98;;;;;;;;;;5093858;28;20482;-77
2023/08/31 09:29:23;;;;;;;4.43;0.77;;;;;;;;;;5113338;28;20460;-77
2023/08/31 09:31:49;;;;;;;3.42;0.70;;;;;;;;;;5109262;28;20051;-77
2023/08/31 09:34:15;;;;;;;5.38;0.80;;;;;;;;;;5112382;28;20120;-78
2023/08/31 09:36:42;;;;;;;1.95;0.52;;;;;;;;;;5090870;28;20489;-77
2023/08/31 09:39:09;;;;;;;3.22;0.70;;;;;;;;;;5112577;28;20556;-77
2023/08/31 09:41:35;;;;;;;2.28;0.70;;;;;;;;;;5090701;28;20043;-76
2023/08/31 09:44:17;;;;;;;3.20;0.57;;;;;;;;;;5111185;28;20039;-76
2023/08/31 09:46:44;;;;;;;2.72;0.52;;;;;;;;;;5104585;28;20075;-75
2023/08/31 09:49:10;;;;;;;2.28;0.50;;;;;;;;;;5108065;28;20066;-77
2023/08/31 09:51:40;;;;;;;3.20;0.60;;;;;;;;;;5112809;28;20048;-76
2023/08/31 09:54:07;;;;;;;5.18;0.60;;;;;;;;;;5108925;28;20520;-74
2023/08/31 09:56:34;;;;;;;3.17;0.60;;;;;;;;;;5094004;28;20054;-77
2023/08/31 09:59:02;;;;;;;5.10;0.70;;;;;;;;;;5112122;28;20040;-76
2023/08/31 10:01:28;;;;;;;3.95;0.60;;;;;;;;;;5110939;28;20043;-77
2023/08/31 10:03:55;;;;;;;3.97;0.70;;;;;;;;;;5100210;28;20062;-77
2023/08/31 10:06:22;;;;;;;5.53;0.90;;;;;;;;;;5092126;28;20044;-75
2023/08/31 10:08:48;;;;;;;3.95;0.73;;;;;;;;;;5095108;28;20040;-77
2023/08/31 10:11:15;;;;;;;4.43;0.77;;;;;;;;;;5100110;28;20036;-77
2023/08/31 10:13:41;;;;;;;4.53;0.63;;;;;;;;;;5102394;28;20044;-77
2023/08/31 10:16:08;;;;;;;5.82;0.95;;;;;;;;;;5093917;28;20040;-77
2023/08/31 10:18:37;;;;;;;3.00;0.70;;;;;;;;;;5110084;28;20050;-77
2023/08/31 10:21:03;;;;;;;4.07;0.70;;;;;;;;;;5112489;28;20398;-77
2023/08/31 10:23:29;;;;;;;5.68;1.10;;;;;;;;;;5115509;28;20055;-77
2023/08/31 10:25:55;;;;;;;3.20;0.70;;;;;;;;;;5117000;28;20043;-73
2023/08/31 10:28:23;;;;;;;3.90;0.65;;;;;;;;;;5103610;28;20079;-77
2023/08/31 10:31:05;;;;;;;3.00;0.50;;;;;;;;;;5116192;28;20053;-77
2023/08/31 10:33:32;;;;;;;1.90;0.73;;;;;;;;;;5115937;28;20048;-77
2023/08/31 10:35:58;;;;;;;4.20;0.80;;;;;;;;;;5097446;28;20040;-77
2023/08/31 10:38:31;;;;;;;3.15;0.60;;;;;;;;;;5114958;28;20046;-77
2023/08/31 10:41:02;;;;;;;1.83;0.60;;;;;;;;;;5092423;28;20056;-78
2023/08/31 10:43:28;;;;;;;;;;;;;;;;;;5098280;28;20127;-77
2023/08/31 10:45:54;;;;;;;3.25;0.60;;;;;;;;;;5116320;28;19955;-77
2023/08/31 10:48:20;;;;;;;6.20;1.10;;;;;;;;;;5115290;28;20036;-77
2023/08/31 10:50:47;;;;;;;2.70;0.60;;;;;;;;;;5114638;28;20046;-78
2023/08/31 10:53:13;;;;;;;3.88;0.80;;;;;;;;;;5115463;28;20545;-77
2023/08/31 10:55:52;;;;;;;4.07;0.80;;;;;;;;;;5111480;28;20382;-77
2023/08/31 10:58:18;;;;;;;3.65;0.60;;;;;;;;;;5113867;28;20059;-78
2023/08/31 11:00:51;;;;;;;3.90;0.70;;;;;;;;;;5116092;28;20039;-78
2023/08/31 11:03:17;;;;;;;4.82;0.70;;;;;;;;;;5116046;28;20438;-78
2023/08/31 11:05:53;;;;;;;3.90;0.80;;;;;;;;;;5115174;28;20048;-78
2023/08/31 11:08:23;;;;;;;3.90;0.70;;;;;;;;;;5114623;28;20063;-78
2023/08/31 11:10:49;;;;;;;3.75;0.55;;;;;;;;;;5115704;28;20098;-78
2023/08/31 11:13:23;;;;;;;4.68;0.80;;;;;;;;;;5115616;28;20035;-78
2023/08/31 11:15:49;;;;;;;2.20;0.60;;;;;;;;;;5095815;28;20431;-78
2023/08/31 11:18:17;;;;;;;3.53;0.50;;;;;;;;;;5115861;28;20048;-77
2023/08/31 11:20:44;;;;;;;3.67;0.57;;;;;;;;;;5114940;28;20043;-77
2023/08/31 11:23:10;;;;;;;3.70;0.82;;;;;;;;;;5115417;28;20056;-78
2023/08/31 11:25:36;;;;;;;6.68;1.08;;;;;;;;;;5095294;28;20047;-76
2023/08/31 11:28:05;;;;;;;3.47;0.88;;;;;;;;;;5080490;28;20524;-76
2023/08/31 11:30:31;;;;;;;4.50;0.82;;;;;;;;;;5115153;28;20073;-76
2023/08/31 11:32:58;;;;;;;4.28;0.90;;;;;;;;;;5114610;28;20093;-76
2023/08/31 11:35:24;;;;;;;7.10;1.00;;;;;;;;;;5095224;28;20059;-76
2023/08/31 11:37:52;;;;;;;4.00;0.82;;;;;;;;;;5115137;28;20454;-77
2023/08/31 11:40:18;;;;;;;3.80;0.90;;;;;;;;;;5107695;28;20070;-77
2023/08/31 11:42:45;;;;;;;2.80;0.73;;;;;;;;;;5111117;28;20055;-77
2023/08/31 11:45:12;;;;;;;4.13;0.75;;;;;;;;;;5113522;28;20401;-78
2023/08/31 11:47:39;;;;;;;3.58;0.73;;;;;;;;;;5115204;28;20047;-77
2023/08/31 11:50:06;;;;;;;2.95;0.70;;;;;;;;;;5098576;28;20078;-77
2023/08/31 11:52:32;;;;;;;2.63;0.60;;;;;;;;;;5094400;28;20375;-77
2023/08/31 11:54:59;;;;;;;3.13;0.70;;;;;;;;;;5101712;28;20178;-76
2023/08/31 11:57:26;;;;;;;3.35;0.63;;;;;;;;;;5116650;28;20477;-78
2023/08/31 11:59:52;;;;;;;3.00;0.70;;;;;;;;;;5116969;28;20520;-78
2023/08/31 12:02:19;;;;;;;2.35;0.82;;;;;;;;;;5115683;28;20061;-78
2023/08/31 12:04:46;;;;;;;4.45;0.60;;;;;;;;;;5113604;28;20511;-79
2023/08/31 12:07:13;;;;;;;4.38;0.90;;;;;;;;;;5102865;28;20073;-77
2023/08/31 12:09:40;;;;;;;4.18;0.90;;;;;;;;;;5095641;28;20472;-78
2023/08/31 12:12:08;;;;;;;4.45;0.80;;;;;;;;;;5096653;28;20116;-78
2023/08/31 12:14:34;;;;;;;4.63;0.80;;;;;;;;;;5113451;28;20044;-78
2023/08/31 12:17:04;;;;;;;7.07;1.05;;;;;;;;;;5115589;28;20043;-78
2023/08/31 12:19:31;;;;;;;3.85;0.80;;;;;;;;;;5114684;28;20127;-77
2023/08/31 12:21:57;;;;;;;3.55;0.82;;;;;;;;;;5114813;28;20055;-78
2023/08/31 12:24:23;;;;;;;5.15;1.05;;;;;;;;;;5114624;28;20043;-78
2023/08/31 12:26:50;;;;;;;4.15;1.15;;;;;;;;;;5113941;28;20132;-79
2023/08/31 12:29:16;;;;;;;5.03;0.95;;;;;;;;;;5111020;28;20523;-77
2023/08/31 12:31:45;;;;;;;3.90;0.88;;;;;;;;;;5101945;28;20046;-78
2023/08/31 12:34:11;;;;;;;6.35;0.80;;;;;;;;;;5095449;28;20047;-77
2023/08/31 12:36:40;;;;;;;6.78;1.10;;;;;;;;;;5112787;28;20044;-79
2023/08/31 12:39:09;;;;;;;4.00;0.73;;;;;;;;;;5112393;28;20479;-79
2023/08/31 12:41:35;;;;;;;3.72;0.98;;;;;;;;;;5104947;28;20070;-78
2023/08/31 12:44:03;;;;;;;3.47;0.73;;;;;;;;;;5101401;28;20048;-78
2023/08/31 12:46:29;;;;;;;5.25;0.90;;;;;;;;;;5109827;28;20574;-79
2023/08/31 12:48:55;;;;;;;5.20;0.80;;;;;;;;;;5114173;28;20048;-78
2023/08/31 12:51:22;;;;;;;4.55;0.90;;;;;;;;;;5115028;28;20032;-78
2023/08/31 12:53:48;;;;;;;4.25;0.90;;;;;;;;;;5097954;28;20054;-78
2023/08/31 12:56:21;;;;;;;6.22;0.93;;;;;;;;;;5115160;28;20043;-79
2023/08/31 12:58:47;;;;;;;5.18;0.90;;;;;;;;;;5113548;28;20167;-79
2023/08/31 13:01:13;;;;;;;3.92;1.20;;;;;;;;;;5115026;28;20043;-78
2023/08/31 13:03:39;;;;;;;3.63;0.70;;;;;;;;;;5115886;28;20382;-78
2023/08/31 13:06:05;;;;;;;4.43;0.90;;;;;;;;;;5111857;28;20047;-78
2023/08/31 13:08:31;;;;;;;6.57;0.88;;;;;;;;;;5113644;28;20151;-77
2023/08/31 13:10:57;;;;;;;4.40;1.00;;;;;;;;;;5108014;28;21017;-78
2023/08/31 13:13:23;;;;;;;4.15;0.98;;;;;;;;;;5113083;28;20149;-79
2023/08/31 13:15:50;;;;;;;4.78;1.13;;;;;;;;;;5111523;28;20047;-76
2023/08/31 13:18:16;;;;;;;11.45;1.67;;;;;;;;;;5112044;28;20050;-77
2023/08/31 13:20:49;;;;;;;6.05;1.23;;;;;;;;;;5111282;28;20071;-78
2023/08/31 13:23:15;;;;;;;4.80;1.00;;;;;;;;;;5112440;28;20046;-77
2023/08/31 13:25:41;;;;;;;7.38;1.00;;;;;;;;;;5112395;28;20039;-77
2023/08/31 13:28:07;;;;;;;4.35;0.95;;;;;;;;;;5111796;28;20351;-77
2023/08/31 13:30:33;;;;;;;3.75;0.80;;;;;;;;;;5093564;28;20114;-78
2023/08/31 13:32:59;;;;;;;3.13;0.80;;;;;;;;;;5113513;28;20401;-78
2023/08/31 13:35:25;;;;;;;5.78;0.90;;;;;;;;;;5113399;28;20043;-77
2023/08/31 13:37:52;;;;;;;3.50;0.70;;;;;;;;;;5095201;28;20055;-76
2023/08/31 13:40:18;;;;;;;3.50;0.70;;;;;;;;;;5111786;28;20055;-77
2023/08/31 13:43:05;;;;;;;3.50;0.90;;;;;;;;;;5112803;28;20400;-78
2023/08/31 13:45:31;;;;;;;3.92;0.90;;;;;;;;;;5111468;28;20048;-77
2023/08/31 13:47:59;;;;;;;6.32;1.10;;;;;;;;;;5112396;28;20031;-78
2023/08/31 13:50:25;;;;;;;3.33;0.98;;;;;;;;;;5108614;28;20185;-78
2023/08/31 13:52:52;;;;;;;5.13;0.95;;;;;;;;;;5094373;28;20064;-77
2023/08/31 13:55:18;;;;;;;5.82;1.08;;;;;;;;;;5104180;28;20070;-78
2023/08/31 13:57:44;;;;;;;7.30;1.33;;;;;;;;;;5115737;28;20035;-79
2023/08/31 14:00:11;;;;;;;3.40;0.82;;;;;;;;;;5112605;28;20035;-77
2023/08/31 14:02:37;;;;;;;5.68;1.00;;;;;;;;;;5117161;28;20055;-77
2023/08/31 14:05:04;;;;;;;6.55;1.05;;;;;;;;;;5116174;28;20066;-77
2023/08/31 14:07:30;;;;;;;5.32;1.10;;;;;;;;;;5116233;28;20044;-77
2023/08/31 14:09:56;;;;;;;5.43;1.10;;;;;;;;;;5115788;27;20039;-77
2023/08/31 14:12:22;;;;;;;5.43;1.10;;;;;;;;;;5115558;28;20055;-78
2023/08/31 14:14:48;;;;;;;4.15;1.20;;;;;;;;;;5115825;28;20048;-74
2023/08/31 14:17:14;;;;;;;5.57;1.15;;;;;;;;;;5115543;28;20044;-76
2023/08/31 14:19:40;;;;;;;5.88;1.02;;;;;;;;;;5113797;28;20272;-79
2023/08/31 14:22:07;;;;;;;4.65;1.00;;;;;;;;;;5113399;28;20047;-78
2023/08/31 14:24:33;;;;;;;3.10;0.82;;;;;;;;;;5115639;28;20054;-78
2023/08/31 14:26:59;;;;;;;5.90;1.10;;;;;;;;;;5115272;28;20467;-78
2023/08/31 14:29:25;;;;;;;6.40;1.23;;;;;;;;;;5113104;28;20043;-78
2023/08/31 14:31:54;;;;;;;5.55;1.17;;;;;;;;;;5114933;28;20051;-78
2023/08/31 14:34:20;;;;;;;5.93;1.00;;;;;;;;;;5114584;28;20040;-77
2023/08/31 14:36:46;;;;;;;5.93;1.38;;;;;;;;;;5114297;28;20073;-77
2023/08/31 14:39:12;;;;;;;5.40;1.10;;;;;;;;;;5114060;28;20079;-77